createdAt,value
2023-03-03T00:03:30.516Z,5.05
2023-03-03T00:07:46.382Z,4.47
2023-03-03T00:12:26.663Z,3.75
2023-03-03T00:16:39.515Z,3.70
2023-03-03T00:21:01.345Z,3.60
2023-03-03T00:25:34.609Z,1.73
2023-03-03T00:29:51.434Z,1.67
2023-03-03T00:34:20.369Z,1.83
2023-03-03T00:38:37.168Z,1.30
2023-03-03T00:42:55.502Z,1.10
2023-03-03T00:47:31.595Z,0.85
2023-03-03T00:51:44.776Z,0.68
2023-03-03T00:55:58.627Z,1.05
2023-03-03T01:00:15.819Z,0.80
2023-03-03T01:04:31.935Z,0.73
2023-03-03T01:08:46.462Z,0.73
2023-03-03T01:12:59.021Z,0.93
2023-03-03T01:17:11.404Z,1.00
2023-03-03T01:21:25.078Z,0.82
2023-03-03T01:25:37.687Z,0.90
2023-03-03T01:29:50.693Z,1.20
2023-03-03T01:34:04.378Z,0.75
2023-03-03T01:38:18.943Z,1.05
2023-03-03T01:42:31.914Z,1.15
2023-03-03T01:47:19.460Z,1.02
2023-03-03T01:51:37.228Z,1.13
2023-03-03T01:55:51.974Z,1.00
2023-03-03T02:00:06.526Z,1.02
2023-03-03T02:04:26.931Z,1.02
2023-03-03T02:08:59.504Z,1.38
2023-03-03T02:13:11.940Z,1.23
2023-03-03T02:17:25.003Z,1.23
2023-03-03T02:21:37.391Z,0.90
2023-03-03T02:26:00.580Z,1.17
2023-03-03T02:30:20.417Z,1.10
2023-03-03T02:34:46.173Z,1.00
2023-03-03T02:39:18.625Z,1.02
2023-03-03T02:43:42.774Z,1.35
2023-03-03T02:47:55.849Z,1.35
2023-03-03T02:52:10.550Z,1.23
2023-03-03T02:56:25.761Z,1.17
2023-03-03T03:00:38.215Z,1.60
2023-03-03T03:04:50.624Z,1.05
2023-03-03T03:09:09.094Z,1.42
2023-03-03T03:13:21.504Z,1.30
2023-03-03T03:17:34.651Z,1.00
2023-03-03T03:21:47.208Z,1.50
2023-03-03T03:26:00.545Z,1.20
2023-03-03T03:30:17.702Z,1.90
2023-03-03T03:34:30.326Z,2.00
2023-03-03T03:38:43.634Z,1.98
2023-03-03T03:42:56.899Z,1.50
2023-03-03T03:47:09.577Z,1.60
2023-03-03T03:51:22.692Z,1.67
2023-03-03T03:55:35.405Z,1.63
2023-03-03T03:59:50.582Z,2.03
2023-03-03T04:04:04.616Z,2.00
2023-03-03T04:08:17.452Z,2.00
2023-03-03T04:12:36.568Z,2.08
2023-03-03T04:16:49.047Z,2.23
2023-03-03T04:21:02.797Z,2.42
2023-03-03T04:25:17.515Z,2.15
2023-03-03T04:29:33.999Z,2.30
2023-03-03T04:33:49.017Z,1.90
2023-03-03T04:38:02.200Z,1.45
2023-03-03T04:42:15.772Z,1.30
2023-03-03T04:46:28.944Z,1.60
2023-03-03T04:50:43.760Z,1.70
2023-03-03T04:54:56.173Z,1.83
2023-03-03T04:59:08.777Z,2.33
2023-03-03T05:03:22.027Z,2.53
2023-03-03T05:07:35.723Z,2.47
2023-03-03T05:11:51.944Z,2.13
2023-03-03T05:16:04.766Z,2.20
2023-03-03T05:20:17.353Z,2.15
2023-03-03T05:24:29.943Z,1.95
2023-03-03T05:28:42.318Z,2.35
2023-03-03T05:32:54.822Z,1.92
2023-03-03T05:37:07.260Z,1.90
2023-03-03T05:41:19.676Z,1.90
2023-03-03T05:45:32.125Z,2.38
2023-03-03T05:49:44.480Z,2.25
2023-03-03T05:53:56.791Z,1.80
2023-03-03T05:58:09.175Z,2.13
2023-03-03T06:02:21.752Z,1.92
2023-03-03T06:06:34.296Z,2.20
2023-03-03T06:10:46.781Z,2.28
2023-03-03T06:15:00.425Z,2.38
2023-03-03T06:19:12.808Z,2.60
2023-03-03T06:23:25.409Z,2.13
2023-03-03T06:27:37.829Z,2.30
2023-03-03T06:31:50.205Z,2.50
2023-03-03T06:36:05.363Z,2.63
2023-03-03T06:40:18.508Z,2.67
2023-03-03T06:44:30.913Z,2.53
2023-03-03T06:48:43.269Z,2.55
2023-03-03T06:53:16.705Z,2.42
2023-03-03T06:57:32.157Z,3.35
2023-03-03T07:01:47.059Z,3.30
2023-03-03T07:05:59.456Z,3.08
2023-03-03T07:10:29.789Z,2.42
2023-03-03T07:14:45.063Z,2.50
2023-03-03T07:19:05.751Z,2.35
2023-03-03T07:23:20.844Z,2.75
2023-03-03T07:27:33.368Z,3.40
2023-03-03T07:31:50.464Z,2.10
2023-03-03T07:36:04.528Z,1.95
2023-03-03T07:40:35.757Z,2.10
2023-03-03T07:44:50.963Z,2.03
2023-03-03T07:49:16.735Z,2.22
2023-03-03T07:53:35.096Z,2.53
2023-03-03T07:57:47.567Z,2.10
2023-03-03T08:02:00.944Z,2.33
2023-03-03T08:06:42.288Z,2.60
2023-03-03T08:10:59.675Z,2.65
2023-03-03T08:15:19.973Z,3.00
2023-03-03T08:19:32.611Z,3.08
2023-03-03T08:23:45.274Z,2.85
2023-03-03T08:27:58.306Z,2.80
2023-03-03T08:32:10.750Z,2.90
2023-03-03T08:36:23.249Z,2.22
2023-03-03T08:40:36.671Z,2.30
2023-03-03T08:44:49.127Z,2.03
2023-03-03T08:49:01.479Z,2.20
2023-03-03T08:53:14.840Z,2.00
2023-03-03T08:57:27.197Z,2.47
2023-03-03T09:01:39.585Z,2.00
2023-03-03T09:05:52.017Z,1.85
2023-03-03T09:10:05.235Z,2.13
2023-03-03T09:14:19.291Z,2.00
2023-03-03T09:18:38.372Z,2.33
2023-03-03T09:22:51.501Z,2.28
2023-03-03T09:27:32.052Z,1.95
2023-03-03T09:36:35.892Z,2.08
2023-03-03T09:41:21.815Z,2.30
2023-03-03T09:45:40.371Z,4.30
2023-03-03T09:50:07.256Z,2.75
2023-03-03T09:54:34.590Z,3.17
2023-03-03T09:59:11.102Z,3.03
2023-03-03T10:03:48.020Z,2.13
2023-03-03T10:08:21.709Z,1.98
2023-03-03T10:12:54.406Z,1.80
2023-03-03T10:17:21.741Z,1.60
2023-03-03T10:21:46.345Z,1.63
2023-03-03T10:26:08.813Z,1.70
2023-03-03T10:31:10.180Z,2.05
2023-03-03T10:35:41.869Z,2.22
2023-03-03T10:40:28.708Z,2.45
2023-03-03T10:45:03.102Z,1.83
2023-03-03T10:49:35.226Z,2.03
2023-03-03T10:54:30.772Z,2.33
2023-03-03T10:58:46.802Z,2.70
2023-03-03T11:03:36.921Z,2.65
2023-03-03T11:08:06.625Z,2.47
2023-03-03T11:12:47.848Z,2.72
2023-03-03T11:17:21.276Z,2.80
2023-03-03T11:21:48.101Z,2.83
2023-03-03T11:26:07.754Z,2.78
2023-03-03T11:30:59.271Z,2.17
2023-03-03T11:35:40.801Z,2.25
2023-03-03T11:39:58.154Z,2.20
2023-03-03T11:44:18.625Z,2.55
2023-03-03T11:48:55.061Z,1.75
2023-03-03T11:53:24.934Z,2.63
2023-03-03T11:57:48.598Z,2.45
2023-03-03T12:02:24.111Z,2.78
2023-03-03T12:06:51.893Z,3.00
2023-03-03T12:11:13.149Z,2.60
2023-03-03T12:15:55.728Z,2.50
2023-03-03T12:20:42.872Z,2.97
2023-03-03T12:25:19.378Z,3.38
2023-03-03T12:29:41.783Z,3.30
2023-03-03T12:34:19.596Z,3.85
2023-03-03T12:38:50.046Z,3.40
2023-03-03T12:43:38.734Z,3.40
2023-03-03T12:47:58.975Z,3.15
2023-03-03T12:52:18.988Z,3.35
2023-03-03T13:01:28.643Z,4.47
2023-03-03T13:05:59.177Z,3.47
2023-03-03T13:10:30.308Z,3.92
2023-03-03T13:15:31.740Z,3.10
2023-03-03T13:20:00.348Z,4.40
2023-03-03T13:24:24.368Z,3.95
2023-03-03T13:28:52.144Z,4.78
2023-03-03T13:33:22.983Z,4.60
2023-03-03T13:37:52.997Z,4.88
2023-03-03T13:42:19.065Z,3.53
2023-03-03T13:47:00.267Z,4.00
2023-03-03T13:51:48.561Z,3.95
2023-03-03T13:56:21.127Z,3.08
2023-03-03T14:00:39.458Z,4.70
2023-03-03T14:04:59.224Z,2.63
2023-03-03T14:09:27.467Z,3.30
2023-03-03T14:14:12.255Z,2.92
2023-03-03T14:18:39.493Z,3.08
2023-03-03T14:23:10.151Z,3.00
2023-03-03T14:27:33.628Z,2.38
2023-03-03T14:31:46.382Z,2.50
2023-03-03T14:35:58.801Z,1.85
2023-03-03T14:40:23.182Z,2.28
2023-03-03T14:44:53.993Z,2.10
2023-03-03T14:49:28.106Z,2.10
2023-03-03T14:53:45.030Z,2.05
2023-03-03T14:57:58.373Z,2.53
2023-03-03T15:02:16.912Z,2.53
2023-03-03T15:06:36.764Z,2.38
2023-03-03T15:15:09.480Z,2.35
2023-03-03T15:19:55.677Z,2.53
2023-03-03T15:24:16.415Z,3.08
2023-03-03T15:28:56.586Z,2.88
2023-03-03T15:33:30.936Z,2.53
2023-03-03T15:37:54.616Z,2.72
2023-03-03T15:42:27.521Z,4.15
2023-03-03T15:46:50.730Z,3.83
2023-03-03T15:51:28.780Z,7.47
2023-03-03T15:56:03.174Z,7.50
2023-03-03T16:00:35.954Z,7.00
2023-03-03T16:04:55.430Z,6.35
2023-03-03T16:10:03.306Z,8.38
2023-03-03T16:14:47.906Z,9.60
2023-03-03T16:19:24.354Z,9.52
2023-03-03T16:23:52.602Z,10.95
2023-03-03T16:28:24.800Z,13.13
2023-03-03T16:32:43.054Z,13.23
2023-03-03T16:37:14.972Z,14.52
2023-03-03T16:41:51.821Z,15.27
2023-03-03T16:46:32.179Z,15.02
2023-03-03T16:51:10.491Z,16.52
2023-03-03T16:55:45.772Z,14.75
2023-03-03T17:00:09.889Z,14.30
2023-03-03T17:05:05.561Z,14.05
2023-03-03T17:09:40.331Z,12.38
2023-03-03T17:14:06.971Z,12.38
2023-03-03T17:18:58.030Z,12.90
2023-03-03T17:23:47.732Z,14.23
2023-03-03T17:28:17.709Z,16.15
2023-03-03T17:32:37.409Z,20.13
2023-03-03T17:37:28.371Z,18.60
2023-03-03T17:42:01.627Z,23.10
2023-03-03T17:46:42.146Z,22.17
2023-03-03T17:51:16.421Z,25.42
2023-03-03T17:55:49.835Z,22.10
2023-03-03T18:00:19.185Z,16.50
2023-03-03T18:05:04.160Z,14.90
2023-03-03T18:09:46.406Z,14.55
2023-03-03T18:14:21.851Z,13.35
2023-03-03T18:19:07.672Z,13.48
2023-03-03T18:23:44.779Z,13.93
2023-03-03T18:27:59.803Z,14.45
2023-03-03T18:32:22.079Z,14.05
2023-03-03T18:36:34.487Z,14.63
2023-03-03T18:41:09.735Z,14.30
2023-03-03T18:45:25.964Z,16.50
2023-03-03T18:49:57.200Z,17.45
2023-03-03T18:54:12.953Z,18.85
2023-03-03T18:58:36.289Z,17.52
2023-03-03T19:02:56.670Z,18.95
2023-03-03T19:07:17.134Z,17.98
2023-03-03T19:11:36.984Z,15.10
2023-03-03T19:15:55.619Z,18.35
2023-03-03T19:20:15.593Z,15.27
2023-03-03T19:29:08.185Z,14.50
2023-03-03T19:33:26.965Z,15.02
2023-03-03T19:37:51.630Z,14.43
2023-03-03T19:43:00.800Z,15.05
2023-03-03T19:47:22.072Z,14.38
2023-03-03T19:51:53.238Z,13.25
2023-03-03T19:56:23.542Z,12.73
2023-03-03T20:00:42.630Z,11.38
2023-03-03T20:05:16.473Z,12.10
2023-03-03T20:09:47.513Z,11.00
2023-03-03T20:14:38.325Z,10.60
2023-03-03T20:19:09.750Z,10.32
2023-03-03T20:23:30.715Z,10.43
2023-03-03T20:28:06.180Z,11.10
2023-03-03T20:33:08.537Z,10.73
2023-03-03T20:38:06.178Z,8.68
2023-03-03T20:42:33.519Z,7.97
2023-03-03T20:47:10.147Z,8.23
2023-03-03T20:51:43.073Z,8.32
2023-03-03T20:56:20.439Z,7.03
2023-03-03T21:00:51.486Z,7.88
2023-03-03T21:05:13.602Z,8.63
2023-03-03T21:09:32.256Z,9.25
2023-03-03T21:13:57.309Z,9.50
2023-03-03T21:18:25.466Z,9.10
2023-03-03T21:22:37.940Z,10.18
2023-03-03T21:26:57.674Z,10.55
2023-03-03T21:31:17.876Z,9.02
2023-03-03T21:35:30.299Z,7.35
2023-03-03T21:39:44.516Z,7.78
2023-03-03T21:43:57.049Z,7.95
2023-03-03T21:48:10.456Z,7.90
2023-03-03T21:52:23.272Z,7.32
2023-03-03T21:56:38.368Z,6.63
2023-03-03T22:00:50.810Z,6.68
2023-03-03T22:05:07.847Z,6.85
2023-03-03T22:09:20.539Z,7.10
2023-03-03T22:13:32.945Z,6.63
2023-03-03T22:17:45.615Z,6.47
2023-03-03T22:21:58.008Z,7.63
2023-03-03T22:26:10.409Z,7.03
2023-03-03T22:30:22.784Z,7.00
2023-03-03T22:34:35.170Z,7.50
2023-03-03T22:38:48.242Z,6.80
2023-03-03T22:43:00.975Z,7.00
2023-03-03T22:47:13.357Z,6.57
2023-03-03T22:51:28.855Z,6.80
2023-03-03T22:55:41.374Z,6.40
2023-03-03T22:59:53.810Z,7.53
2023-03-03T23:04:06.255Z,6.57
2023-03-03T23:08:21.597Z,5.93
2023-03-03T23:12:34.032Z,5.68
2023-03-03T23:16:47.602Z,5.53
2023-03-03T23:20:59.984Z,6.35
2023-03-03T23:25:12.548Z,5.65
2023-03-03T23:29:25.221Z,5.78
2023-03-03T23:33:37.567Z,5.90
2023-03-03T23:37:50.155Z,6.45
2023-03-03T23:42:02.630Z,6.50
2023-03-03T23:46:15.563Z,5.30
2023-03-03T23:50:28.102Z,5.07
2023-03-03T23:54:40.473Z,4.78
2023-03-03T23:58:52.855Z,4.20
